sensor_id;sensor_type;location;lat;lon;timestamp;P1;durP1;ratioP1;P2;durP2;ratioP2
739;SDS011;354;42.694;23.336;2023-04-26T00:00:43;9.10;;;8.43;;
739;SDS011;354;42.694;23.336;2023-04-26T00:03:09;9.57;;;8.73;;
739;SDS011;354;42.694;23.336;2023-04-26T00:05:37;9.13;;;8.37;;
739;SDS011;354;42.694;23.336;2023-04-26T00:08:02;9.13;;;8.43;;
739;SDS011;354;42.694;23.336;2023-04-26T00:10:28;10.30;;;9.50;;
739;SDS011;354;42.694;23.336;2023-04-26T00:12:54;11.30;;;10.23;;
739;SDS011;354;42.694;23.336;2023-04-26T00:15:20;11.63;;;10.53;;
739;SDS011;354;42.694;23.336;2023-04-26T00:17:45;13.70;;;11.77;;
739;SDS011;354;42.694;23.336;2023-04-26T00:20:11;12.00;;;10.90;;
739;SDS011;354;42.694;23.336;2023-04-26T00:22:37;13.93;;;12.23;;
739;SDS011;354;42.694;23.336;2023-04-26T00:25:03;13.07;;;11.87;;
739;SDS011;354;42.694;23.336;2023-04-26T00:27:29;14.27;;;12.93;;
739;SDS011;354;42.694;23.336;2023-04-26T00:29:55;14.63;;;13.23;;
739;SDS011;354;42.694;23.336;2023-04-26T00:32:21;13.90;;;12.60;;
739;SDS011;354;42.694;23.336;2023-04-26T00:34:46;15.50;;;13.90;;
739;SDS011;354;42.694;23.336;2023-04-26T00:37:12;15.23;;;13.73;;
739;SDS011;354;42.694;23.336;2023-04-26T00:39:37;15.93;;;14.33;;
739;SDS011;354;42.694;23.336;2023-04-26T00:42:03;16.47;;;14.77;;
739;SDS011;354;42.694;23.336;2023-04-26T00:44:28;17.57;;;15.87;;
739;SDS011;354;42.694;23.336;2023-04-26T00:46:53;18.60;;;15.60;;
739;SDS011;354;42.694;23.336;2023-04-26T00:49:21;16.33;;;14.80;;
739;SDS011;354;42.694;23.336;2023-04-26T00:51:49;17.03;;;15.33;;
739;SDS011;354;42.694;23.336;2023-04-26T00:54:16;17.47;;;15.80;;
739;SDS011;354;42.694;23.336;2023-04-26T00:56:43;18.40;;;16.53;;
739;SDS011;354;42.694;23.336;2023-04-26T00:59:09;16.73;;;15.13;;
739;SDS011;354;42.694;23.336;2023-04-26T01:01:35;18.50;;;16.60;;
739;SDS011;354;42.694;23.336;2023-04-26T01:04:01;19.40;;;17.40;;
739;SDS011;354;42.694;23.336;2023-04-26T01:06:28;19.63;;;16.30;;
739;SDS011;354;42.694;23.336;2023-04-26T01:09:03;18.67;;;16.67;;
739;SDS011;354;42.694;23.336;2023-04-26T01:11:34;19.87;;;17.77;;
739;SDS011;354;42.694;23.336;2023-04-26T01:14:01;20.23;;;18.13;;
739;SDS011;354;42.694;23.336;2023-04-26T01:16:27;20.73;;;18.60;;
739;SDS011;354;42.694;23.336;2023-04-26T01:18:54;20.63;;;17.93;;
739;SDS011;354;42.694;23.336;2023-04-26T01:21:21;21.63;;;17.33;;
739;SDS011;354;42.694;23.336;2023-04-26T01:23:48;20.17;;;17.70;;
739;SDS011;354;42.694;23.336;2023-04-26T01:26:14;22.57;;;18.97;;
739;SDS011;354;42.694;23.336;2023-04-26T01:28:40;22.10;;;18.20;;
739;SDS011;354;42.694;23.336;2023-04-26T01:31:06;20.57;;;17.83;;
739;SDS011;354;42.694;23.336;2023-04-26T01:33:31;23.53;;;19.10;;
739;SDS011;354;42.694;23.336;2023-04-26T01:35:56;26.37;;;20.33;;
739;SDS011;354;42.694;23.336;2023-04-26T01:38:22;22.93;;;19.63;;
739;SDS011;354;42.694;23.336;2023-04-26T01:40:47;25.13;;;21.13;;
739;SDS011;354;42.694;23.336;2023-04-26T01:43:12;25.57;;;21.03;;
739;SDS011;354;42.694;23.336;2023-04-26T01:45:39;24.70;;;19.83;;
739;SDS011;354;42.694;23.336;2023-04-26T01:48:05;25.57;;;21.17;;
739;SDS011;354;42.694;23.336;2023-04-26T01:50:31;23.47;;;19.37;;
739;SDS011;354;42.694;23.336;2023-04-26T01:52:57;25.83;;;19.27;;
739;SDS011;354;42.694;23.336;2023-04-26T01:55:22;30.63;;;21.47;;
739;SDS011;354;42.694;23.336;2023-04-26T01:57:47;25.50;;;19.90;;
739;SDS011;354;42.694;23.336;2023-04-26T02:00:13;23.80;;;19.63;;
739;SDS011;354;42.694;23.336;2023-04-26T02:02:38;24.80;;;19.33;;
739;SDS011;354;42.694;23.336;2023-04-26T02:05:04;25.30;;;19.83;;
739;SDS011;354;42.694;23.336;2023-04-26T02:07:30;23.43;;;20.13;;
739;SDS011;354;42.694;23.336;2023-04-26T02:09:55;27.73;;;21.87;;
739;SDS011;354;42.694;23.336;2023-04-26T02:12:20;25.03;;;20.27;;
739;SDS011;354;42.694;23.336;2023-04-26T02:14:46;23.17;;;20.70;;
739;SDS011;354;42.694;23.336;2023-04-26T02:17:12;22.87;;;19.33;;
739;SDS011;354;42.694;23.336;2023-04-26T02:19:38;23.27;;;20.37;;
739;SDS011;354;42.694;23.336;2023-04-26T02:22:04;22.40;;;18.53;;
739;SDS011;354;42.694;23.336;2023-04-26T02:24:30;21.93;;;18.97;;
739;SDS011;354;42.694;23.336;2023-04-26T02:26:55;22.83;;;17.33;;
739;SDS011;354;42.694;23.336;2023-04-26T02:29:24;17.87;;;14.77;;
739;SDS011;354;42.694;23.336;2023-04-26T02:31:50;18.17;;;16.03;;
739;SDS011;354;42.694;23.336;2023-04-26T02:34:15;18.03;;;16.20;;
739;SDS011;354;42.694;23.336;2023-04-26T02:36:40;18.13;;;16.20;;
739;SDS011;354;42.694;23.336;2023-04-26T02:39:06;17.17;;;14.37;;
739;SDS011;354;42.694;23.336;2023-04-26T02:41:32;18.17;;;15.67;;
739;SDS011;354;42.694;23.336;2023-04-26T02:43:57;19.37;;;15.30;;
739;SDS011;354;42.694;23.336;2023-04-26T02:46:23;18.37;;;15.13;;
739;SDS011;354;42.694;23.336;2023-04-26T02:48:49;17.23;;;15.53;;
739;SDS011;354;42.694;23.336;2023-04-26T02:51:14;17.53;;;15.63;;
739;SDS011;354;42.694;23.336;2023-04-26T02:53:40;15.47;;;13.03;;
739;SDS011;354;42.694;23.336;2023-04-26T02:56:05;14.87;;;13.47;;
739;SDS011;354;42.694;23.336;2023-04-26T02:58:31;13.83;;;12.43;;
739;SDS011;354;42.694;23.336;2023-04-26T03:00:56;13.93;;;12.63;;
739;SDS011;354;42.694;23.336;2023-04-26T03:03:23;13.80;;;12.30;;
739;SDS011;354;42.694;23.336;2023-04-26T03:05:49;13.13;;;11.67;;
739;SDS011;354;42.694;23.336;2023-04-26T03:08:14;12.77;;;11.47;;
739;SDS011;354;42.694;23.336;2023-04-26T03:10:40;14.13;;;12.73;;
739;SDS011;354;42.694;23.336;2023-04-26T03:13:05;13.20;;;11.90;;
739;SDS011;354;42.694;23.336;2023-04-26T03:15:31;12.00;;;10.97;;
739;SDS011;354;42.694;23.336;2023-04-26T03:17:56;11.50;;;10.27;;
739;SDS011;354;42.694;23.336;2023-04-26T03:20:22;10.83;;;9.73;;
739;SDS011;354;42.694;23.336;2023-04-26T03:22:48;12.93;;;11.63;;
739;SDS011;354;42.694;23.336;2023-04-26T03:25:14;13.30;;;11.90;;
739;SDS011;354;42.694;23.336;2023-04-26T03:27:40;13.73;;;11.27;;
739;SDS011;354;42.694;23.336;2023-04-26T03:30:06;12.17;;;11.03;;
739;SDS011;354;42.694;23.336;2023-04-26T03:32:32;11.87;;;10.90;;
739;SDS011;354;42.694;23.336;2023-04-26T03:34:57;12.40;;;11.40;;
739;SDS011;354;42.694;23.336;2023-04-26T03:37:22;11.10;;;10.20;;
739;SDS011;354;42.694;23.336;2023-04-26T03:39:48;12.27;;;10.63;;
739;SDS011;354;42.694;23.336;2023-04-26T03:42:14;10.80;;;9.90;;
739;SDS011;354;42.694;23.336;2023-04-26T03:44:40;11.67;;;10.70;;
739;SDS011;354;42.694;23.336;2023-04-26T03:47:05;12.37;;;11.17;;
739;SDS011;354;42.694;23.336;2023-04-26T03:49:31;12.07;;;10.87;;
739;SDS011;354;42.694;23.336;2023-04-26T03:51:56;12.90;;;10.63;;
739;SDS011;354;42.694;23.336;2023-04-26T03:54:21;17.83;;;13.70;;
739;SDS011;354;42.694;23.336;2023-04-26T03:56:47;18.67;;;14.07;;
739;SDS011;354;42.694;23.336;2023-04-26T03:59:12;15.17;;;13.77;;
739;SDS011;354;42.694;23.336;2023-04-26T04:01:38;14.63;;;13.23;;
739;SDS011;354;42.694;23.336;2023-04-26T04:04:03;12.83;;;11.57;;
739;SDS011;354;42.694;23.336;2023-04-26T04:06:28;11.17;;;9.03;;
739;SDS011;354;42.694;23.336;2023-04-26T04:08:54;12.93;;;10.00;;
739;SDS011;354;42.694;23.336;2023-04-26T04:11:20;9.73;;;8.87;;
739;SDS011;354;42.694;23.336;2023-04-26T04:13:45;9.30;;;8.43;;
739;SDS011;354;42.694;23.336;2023-04-26T04:16:11;10.83;;;9.33;;
739;SDS011;354;42.694;23.336;2023-04-26T04:18:36;10.00;;;8.63;;
739;SDS011;354;42.694;23.336;2023-04-26T04:21:01;11.43;;;8.73;;
739;SDS011;354;42.694;23.336;2023-04-26T04:23:27;11.17;;;10.27;;
739;SDS011;354;42.694;23.336;2023-04-26T04:25:52;9.20;;;8.40;;
739;SDS011;354;42.694;23.336;2023-04-26T04:28:18;9.63;;;8.73;;
739;SDS011;354;42.694;23.336;2023-04-26T04:30:43;9.27;;;8.57;;
739;SDS011;354;42.694;23.336;2023-04-26T04:33:10;10.07;;;9.37;;
739;SDS011;354;42.694;23.336;2023-04-26T04:35:36;8.83;;;8.07;;
739;SDS011;354;42.694;23.336;2023-04-26T04:38:01;10.50;;;9.70;;
739;SDS011;354;42.694;23.336;2023-04-26T04:40:27;9.33;;;8.40;;
739;SDS011;354;42.694;23.336;2023-04-26T04:42:54;9.43;;;8.73;;
739;SDS011;354;42.694;23.336;2023-04-26T04:45:19;9.43;;;8.70;;
739;SDS011;354;42.694;23.336;2023-04-26T04:47:45;11.57;;;10.47;;
739;SDS011;354;42.694;23.336;2023-04-26T04:50:11;9.50;;;8.77;;
739;SDS011;354;42.694;23.336;2023-04-26T04:52:37;9.53;;;8.80;;
739;SDS011;354;42.694;23.336;2023-04-26T04:55:02;12.70;;;11.40;;
739;SDS011;354;42.694;23.336;2023-04-26T04:57:29;10.37;;;9.27;;
739;SDS011;354;42.694;23.336;2023-04-26T04:59:55;9.20;;;8.40;;
739;SDS011;354;42.694;23.336;2023-04-26T05:02:21;12.80;;;11.63;;
739;SDS011;354;42.694;23.336;2023-04-26T05:04:46;9.17;;;8.33;;
739;SDS011;354;42.694;23.336;2023-04-26T05:07:12;9.63;;;8.83;;
739;SDS011;354;42.694;23.336;2023-04-26T05:09:39;11.03;;;8.27;;
739;SDS011;354;42.694;23.336;2023-04-26T05:12:06;11.23;;;10.17;;
739;SDS011;354;42.694;23.336;2023-04-26T05:14:31;9.37;;;8.63;;
739;SDS011;354;42.694;23.336;2023-04-26T05:16:56;9.67;;;8.77;;
739;SDS011;354;42.694;23.336;2023-04-26T05:19:22;9.23;;;8.43;;
739;SDS011;354;42.694;23.336;2023-04-26T05:21:47;9.57;;;8.87;;
739;SDS011;354;42.694;23.336;2023-04-26T05:24:12;9.57;;;8.77;;
739;SDS011;354;42.694;23.336;2023-04-26T05:26:38;10.60;;;9.70;;
739;SDS011;354;42.694;23.336;2023-04-26T05:29:04;9.50;;;8.70;;
739;SDS011;354;42.694;23.336;2023-04-26T05:31:29;10.13;;;9.33;;
739;SDS011;354;42.694;23.336;2023-04-26T05:33:55;10.80;;;9.90;;
739;SDS011;354;42.694;23.336;2023-04-26T05:36:21;9.43;;;8.63;;
739;SDS011;354;42.694;23.336;2023-04-26T05:38:47;10.23;;;9.43;;
739;SDS011;354;42.694;23.336;2023-04-26T05:41:12;9.50;;;8.77;;
739;SDS011;354;42.694;23.336;2023-04-26T05:43:37;10.20;;;9.37;;
739;SDS011;354;42.694;23.336;2023-04-26T05:46:03;10.47;;;9.77;;
739;SDS011;354;42.694;23.336;2023-04-26T05:48:28;11.43;;;10.53;;
739;SDS011;354;42.694;23.336;2023-04-26T05:50:54;14.37;;;13.20;;
739;SDS011;354;42.694;23.336;2023-04-26T05:53:19;9.97;;;9.23;;
739;SDS011;354;42.694;23.336;2023-04-26T05:55:45;9.23;;;8.43;;
739;SDS011;354;42.694;23.336;2023-04-26T05:58:10;9.63;;;8.57;;
739;SDS011;354;42.694;23.336;2023-04-26T06:00:36;11.10;;;10.10;;
739;SDS011;354;42.694;23.336;2023-04-26T06:03:02;10.90;;;9.97;;
739;SDS011;354;42.694;23.336;2023-04-26T06:05:29;11.20;;;10.17;;
739;SDS011;354;42.694;23.336;2023-04-26T06:07:55;11.60;;;10.70;;
739;SDS011;354;42.694;23.336;2023-04-26T06:10:20;11.07;;;10.20;;
739;SDS011;354;42.694;23.336;2023-04-26T06:12:46;11.27;;;10.03;;
739;SDS011;354;42.694;23.336;2023-04-26T06:15:12;11.10;;;10.00;;
739;SDS011;354;42.694;23.336;2023-04-26T06:17:37;9.90;;;9.00;;
739;SDS011;354;42.694;23.336;2023-04-26T06:20:04;10.67;;;9.07;;
739;SDS011;354;42.694;23.336;2023-04-26T06:22:30;10.47;;;9.57;;
739;SDS011;354;42.694;23.336;2023-04-26T06:24:55;10.03;;;9.23;;
739;SDS011;354;42.694;23.336;2023-04-26T06:27:21;10.60;;;9.67;;
739;SDS011;354;42.694;23.336;2023-04-26T06:29:46;10.10;;;9.30;;
739;SDS011;354;42.694;23.336;2023-04-26T06:32:12;10.17;;;8.93;;
739;SDS011;354;42.694;23.336;2023-04-26T06:34:37;9.77;;;9.00;;
739;SDS011;354;42.694;23.336;2023-04-26T06:37:05;10.27;;;9.37;;
739;SDS011;354;42.694;23.336;2023-04-26T06:39:31;9.60;;;8.53;;
739;SDS011;354;42.694;23.336;2023-04-26T06:41:56;8.33;;;7.70;;
739;SDS011;354;42.694;23.336;2023-04-26T06:44:22;9.63;;;8.97;;
739;SDS011;354;42.694;23.336;2023-04-26T06:46:47;9.27;;;8.43;;
739;SDS011;354;42.694;23.336;2023-04-26T06:49:16;9.63;;;8.77;;
739;SDS011;354;42.694;23.336;2023-04-26T06:51:41;12.43;;;9.33;;
739;SDS011;354;42.694;23.336;2023-04-26T06:54:06;10.03;;;9.23;;
739;SDS011;354;42.694;23.336;2023-04-26T06:56:32;10.23;;;9.43;;
739;SDS011;354;42.694;23.336;2023-04-26T06:58:58;8.77;;;8.17;;
739;SDS011;354;42.694;23.336;2023-04-26T07:01:25;9.27;;;8.53;;
739;SDS011;354;42.694;23.336;2023-04-26T07:03:53;12.33;;;11.33;;
739;SDS011;354;42.694;23.336;2023-04-26T07:06:19;10.07;;;9.17;;
739;SDS011;354;42.694;23.336;2023-04-26T07:08:45;10.37;;;9.33;;
739;SDS011;354;42.694;23.336;2023-04-26T07:11:11;8.77;;;8.17;;
739;SDS011;354;42.694;23.336;2023-04-26T07:13:37;9.33;;;8.63;;
739;SDS011;354;42.694;23.336;2023-04-26T07:16:02;11.77;;;10.70;;
739;SDS011;354;42.694;23.336;2023-04-26T07:18:27;9.67;;;8.87;;
739;SDS011;354;42.694;23.336;2023-04-26T07:20:53;10.57;;;9.67;;
739;SDS011;354;42.694;23.336;2023-04-26T07:23:18;11.00;;;9.30;;
739;SDS011;354;42.694;23.336;2023-04-26T07:25:43;10.03;;;9.13;;
739;SDS011;354;42.694;23.336;2023-04-26T07:28:09;9.47;;;8.77;;
739;SDS011;354;42.694;23.336;2023-04-26T07:30:35;10.43;;;9.60;;
739;SDS011;354;42.694;23.336;2023-04-26T07:33:00;10.63;;;9.77;;
739;SDS011;354;42.694;23.336;2023-04-26T07:35:26;9.33;;;8.50;;
739;SDS011;354;42.694;23.336;2023-04-26T07:37:51;10.37;;;9.57;;
739;SDS011;354;42.694;23.336;2023-04-26T07:40:17;9.90;;;9.10;;
739;SDS011;354;42.694;23.336;2023-04-26T07:42:42;10.20;;;9.37;;
739;SDS011;354;42.694;23.336;2023-04-26T07:45:08;9.93;;;9.03;;
739;SDS011;354;42.694;23.336;2023-04-26T07:47:34;9.23;;;8.33;;
739;SDS011;354;42.694;23.336;2023-04-26T07:49:59;8.77;;;8.17;;
739;SDS011;354;42.694;23.336;2023-04-26T07:52:25;8.17;;;7.37;;
739;SDS011;354;42.694;23.336;2023-04-26T07:54:50;7.93;;;7.33;;
739;SDS011;354;42.694;23.336;2023-04-26T07:57:15;8.03;;;7.30;;
739;SDS011;354;42.694;23.336;2023-04-26T07:59:41;8.73;;;8.03;;
739;SDS011;354;42.694;23.336;2023-04-26T08:02:06;8.27;;;7.63;;
739;SDS011;354;42.694;23.336;2023-04-26T08:04:32;9.37;;;8.13;;
739;SDS011;354;42.694;23.336;2023-04-26T08:06:58;14.27;;;10.07;;
739;SDS011;354;42.694;23.336;2023-04-26T08:09:29;20.07;;;10.07;;
739;SDS011;354;42.694;23.336;2023-04-26T08:11:55;9.40;;;8.30;;
739;SDS011;354;42.694;23.336;2023-04-26T08:14:21;10.73;;;8.37;;
739;SDS011;354;42.694;23.336;2023-04-26T08:16:46;12.60;;;8.60;;
739;SDS011;354;42.694;23.336;2023-04-26T08:19:11;9.83;;;8.87;;
739;SDS011;354;42.694;23.336;2023-04-26T08:21:37;9.07;;;8.27;;
739;SDS011;354;42.694;23.336;2023-04-26T08:24:02;8.57;;;7.97;;
739;SDS011;354;42.694;23.336;2023-04-26T08:26:28;10.03;;;7.60;;
739;SDS011;354;42.694;23.336;2023-04-26T08:28:53;9.07;;;8.27;;
739;SDS011;354;42.694;23.336;2023-04-26T08:31:19;8.50;;;7.80;;
739;SDS011;354;42.694;23.336;2023-04-26T08:33:44;8.83;;;8.13;;
739;SDS011;354;42.694;23.336;2023-04-26T08:36:09;8.30;;;7.60;;
739;SDS011;354;42.694;23.336;2023-04-26T08:38:35;9.83;;;7.20;;
739;SDS011;354;42.694;23.336;2023-04-26T08:41:00;8.63;;;7.93;;
739;SDS011;354;42.694;23.336;2023-04-26T08:43:28;8.37;;;7.67;;
739;SDS011;354;42.694;23.336;2023-04-26T08:45:54;8.47;;;7.77;;
739;SDS011;354;42.694;23.336;2023-04-26T08:48:19;8.10;;;7.47;;
739;SDS011;354;42.694;23.336;2023-04-26T08:50:46;9.53;;;8.70;;
739;SDS011;354;42.694;23.336;2023-04-26T08:53:15;7.83;;;7.23;;
739;SDS011;354;42.694;23.336;2023-04-26T08:55:48;7.90;;;6.97;;
739;SDS011;354;42.694;23.336;2023-04-26T08:58:15;7.83;;;7.33;;
739;SDS011;354;42.694;23.336;2023-04-26T09:00:42;7.87;;;6.70;;
739;SDS011;354;42.694;23.336;2023-04-26T09:03:11;8.60;;;7.90;;
739;SDS011;354;42.694;23.336;2023-04-26T09:05:40;10.20;;;9.30;;
739;SDS011;354;42.694;23.336;2023-04-26T09:08:10;9.17;;;7.30;;
739;SDS011;354;42.694;23.336;2023-04-26T09:10:40;22.80;;;19.47;;
739;SDS011;354;42.694;23.336;2023-04-26T09:13:05;9.20;;;6.50;;
739;SDS011;354;42.694;23.336;2023-04-26T09:15:31;7.70;;;6.73;;
739;SDS011;354;42.694;23.336;2023-04-26T09:17:56;7.60;;;7.03;;
739;SDS011;354;42.694;23.336;2023-04-26T09:20:40;7.13;;;6.60;;
739;SDS011;354;42.694;23.336;2023-04-26T09:23:06;7.30;;;6.87;;
739;SDS011;354;42.694;23.336;2023-04-26T09:25:33;6.83;;;6.20;;
739;SDS011;354;42.694;23.336;2023-04-26T09:27:59;7.57;;;7.07;;
739;SDS011;354;42.694;23.336;2023-04-26T09:30:26;6.73;;;6.13;;
739;SDS011;354;42.694;23.336;2023-04-26T09:32:53;6.70;;;6.30;;
739;SDS011;354;42.694;23.336;2023-04-26T09:38:04;5.60;;;5.20;;
739;SDS011;354;42.694;23.336;2023-04-26T09:40:38;6.70;;;6.10;;
739;SDS011;354;42.694;23.336;2023-04-26T09:45:42;6.53;;;6.13;;
739;SDS011;354;42.694;23.336;2023-04-26T09:48:21;6.60;;;6.10;;
739;SDS011;354;42.694;23.336;2023-04-26T09:50:50;5.30;;;5.00;;
739;SDS011;354;42.694;23.336;2023-04-26T09:53:40;5.90;;;5.50;;
739;SDS011;354;42.694;23.336;2023-04-26T09:58:59;7.97;;;5.27;;
739;SDS011;354;42.694;23.336;2023-04-26T10:01:29;7.47;;;6.40;;
739;SDS011;354;42.694;23.336;2023-04-26T10:03:55;10.87;;;9.80;;
739;SDS011;354;42.694;23.336;2023-04-26T10:06:21;6.03;;;5.53;;
739;SDS011;354;42.694;23.336;2023-04-26T10:08:48;5.07;;;4.67;;
739;SDS011;354;42.694;23.336;2023-04-26T10:11:13;5.80;;;5.13;;
739;SDS011;354;42.694;23.336;2023-04-26T10:13:39;5.50;;;5.00;;
739;SDS011;354;42.694;23.336;2023-04-26T10:16:06;4.80;;;4.43;;
739;SDS011;354;42.694;23.336;2023-04-26T10:18:32;5.13;;;4.73;;
739;SDS011;354;42.694;23.336;2023-04-26T10:21:09;5.67;;;5.13;;
739;SDS011;354;42.694;23.336;2023-04-26T10:23:39;5.30;;;4.90;;
739;SDS011;354;42.694;23.336;2023-04-26T10:26:05;5.00;;;4.60;;
739;SDS011;354;42.694;23.336;2023-04-26T10:31:09;5.40;;;5.10;;
739;SDS011;354;42.694;23.336;2023-04-26T10:33:35;6.73;;;4.77;;
739;SDS011;354;42.694;23.336;2023-04-26T10:38:37;4.70;;;4.40;;
739;SDS011;354;42.694;23.336;2023-04-26T10:43:57;5.90;;;5.40;;
739;SDS011;354;42.694;23.336;2023-04-26T10:46:37;5.37;;;4.97;;
739;SDS011;354;42.694;23.336;2023-04-26T10:49:16;4.77;;;4.37;;
739;SDS011;354;42.694;23.336;2023-04-26T10:57:17;4.77;;;4.47;;
739;SDS011;354;42.694;23.336;2023-04-26T11:05:36;4.87;;;4.57;;
739;SDS011;354;42.694;23.336;2023-04-26T11:10:41;4.53;;;4.33;;
739;SDS011;354;42.694;23.336;2023-04-26T11:13:07;5.43;;;5.00;;
739;SDS011;354;42.694;23.336;2023-04-26T11:15:32;4.57;;;4.17;;
739;SDS011;354;42.694;23.336;2023-04-26T11:18:00;5.10;;;4.80;;
739;SDS011;354;42.694;23.336;2023-04-26T11:20:28;5.40;;;5.00;;
739;SDS011;354;42.694;23.336;2023-04-26T11:22:57;4.60;;;4.30;;
739;SDS011;354;42.694;23.336;2023-04-26T11:25:24;5.07;;;4.77;;
739;SDS011;354;42.694;23.336;2023-04-26T11:27:55;6.40;;;5.30;;
739;SDS011;354;42.694;23.336;2023-04-26T11:30:21;5.70;;;5.37;;
739;SDS011;354;42.694;23.336;2023-04-26T11:32:47;4.90;;;4.60;;
739;SDS011;354;42.694;23.336;2023-04-26T11:35:13;5.23;;;4.90;;
739;SDS011;354;42.694;23.336;2023-04-26T11:37:39;8.33;;;7.73;;
739;SDS011;354;42.694;23.336;2023-04-26T11:40:05;5.87;;;5.30;;
739;SDS011;354;42.694;23.336;2023-04-26T11:42:34;5.20;;;4.80;;
739;SDS011;354;42.694;23.336;2023-04-26T11:44:59;5.67;;;5.20;;
739;SDS011;354;42.694;23.336;2023-04-26T11:47:25;4.47;;;4.27;;
739;SDS011;354;42.694;23.336;2023-04-26T11:49:54;5.60;;;5.10;;
739;SDS011;354;42.694;23.336;2023-04-26T11:52:20;7.10;;;6.57;;
739;SDS011;354;42.694;23.336;2023-04-26T11:54:46;5.83;;;5.53;;
739;SDS011;354;42.694;23.336;2023-04-26T11:57:11;5.23;;;4.90;;
739;SDS011;354;42.694;23.336;2023-04-26T11:59:38;6.33;;;5.80;;
739;SDS011;354;42.694;23.336;2023-04-26T12:02:07;5.97;;;5.47;;
739;SDS011;354;42.694;23.336;2023-04-26T12:04:33;5.90;;;5.40;;
739;SDS011;354;42.694;23.336;2023-04-26T12:06:58;5.47;;;5.00;;
739;SDS011;354;42.694;23.336;2023-04-26T12:09:27;5.27;;;4.87;;
739;SDS011;354;42.694;23.336;2023-04-26T12:12:03;5.27;;;4.87;;
739;SDS011;354;42.694;23.336;2023-04-26T12:14:33;4.90;;;4.60;;
739;SDS011;354;42.694;23.336;2023-04-26T12:17:00;5.30;;;4.90;;
739;SDS011;354;42.694;23.336;2023-04-26T12:19:27;5.27;;;4.90;;
739;SDS011;354;42.694;23.336;2023-04-26T12:21:56;5.20;;;4.83;;
739;SDS011;354;42.694;23.336;2023-04-26T12:26:51;3.80;;;3.60;;
739;SDS011;354;42.694;23.336;2023-04-26T12:29:17;5.00;;;4.60;;
739;SDS011;354;42.694;23.336;2023-04-26T12:31:43;4.80;;;4.40;;
739;SDS011;354;42.694;23.336;2023-04-26T12:34:08;4.50;;;4.20;;
739;SDS011;354;42.694;23.336;2023-04-26T12:36:34;4.90;;;4.60;;
739;SDS011;354;42.694;23.336;2023-04-26T12:38:59;5.40;;;5.00;;
739;SDS011;354;42.694;23.336;2023-04-26T12:41:27;5.40;;;5.00;;
739;SDS011;354;42.694;23.336;2023-04-26T12:43:53;4.13;;;3.90;;
739;SDS011;354;42.694;23.336;2023-04-26T12:46:18;4.60;;;4.20;;
739;SDS011;354;42.694;23.336;2023-04-26T12:48:43;5.53;;;5.13;;
739;SDS011;354;42.694;23.336;2023-04-26T12:51:09;5.23;;;4.93;;
739;SDS011;354;42.694;23.336;2023-04-26T12:53:34;5.60;;;5.20;;
739;SDS011;354;42.694;23.336;2023-04-26T12:56:00;5.10;;;4.80;;
739;SDS011;354;42.694;23.336;2023-04-26T12:58:26;5.47;;;4.97;;
739;SDS011;354;42.694;23.336;2023-04-26T13:00:52;5.10;;;4.80;;
739;SDS011;354;42.694;23.336;2023-04-26T13:03:18;5.73;;;5.20;;
739;SDS011;354;42.694;23.336;2023-04-26T13:05:43;5.37;;;5.07;;
739;SDS011;354;42.694;23.336;2023-04-26T13:08:08;4.90;;;4.43;;
739;SDS011;354;42.694;23.336;2023-04-26T13:10:34;5.87;;;5.30;;
739;SDS011;354;42.694;23.336;2023-04-26T13:12:59;6.03;;;5.63;;
739;SDS011;354;42.694;23.336;2023-04-26T13:15:26;6.13;;;5.63;;
739;SDS011;354;42.694;23.336;2023-04-26T13:17:51;5.53;;;5.10;;
739;SDS011;354;42.694;23.336;2023-04-26T13:20:18;5.80;;;5.40;;
739;SDS011;354;42.694;23.336;2023-04-26T13:22:43;6.03;;;5.53;;
739;SDS011;354;42.694;23.336;2023-04-26T13:25:08;5.43;;;5.03;;
739;SDS011;354;42.694;23.336;2023-04-26T13:27:35;6.43;;;5.93;;
739;SDS011;354;42.694;23.336;2023-04-26T13:30:01;5.97;;;5.43;;
739;SDS011;354;42.694;23.336;2023-04-26T13:32:27;5.37;;;4.90;;
739;SDS011;354;42.694;23.336;2023-04-26T13:34:53;5.47;;;4.97;;
739;SDS011;354;42.694;23.336;2023-04-26T13:37:18;5.50;;;5.20;;
739;SDS011;354;42.694;23.336;2023-04-26T13:39:45;6.80;;;4.97;;
739;SDS011;354;42.694;23.336;2023-04-26T13:42:12;5.53;;;5.07;;
739;SDS011;354;42.694;23.336;2023-04-26T13:44:38;5.90;;;5.40;;
739;SDS011;354;42.694;23.336;2023-04-26T13:47:04;5.70;;;5.40;;
739;SDS011;354;42.694;23.336;2023-04-26T13:49:30;6.37;;;5.87;;
739;SDS011;354;42.694;23.336;2023-04-26T13:51:56;7.20;;;5.37;;
739;SDS011;354;42.694;23.336;2023-04-26T13:54:21;6.57;;;6.07;;
739;SDS011;354;42.694;23.336;2023-04-26T13:56:47;8.30;;;6.50;;
739;SDS011;354;42.694;23.336;2023-04-26T13:59:13;6.40;;;5.73;;
739;SDS011;354;42.694;23.336;2023-04-26T14:01:38;6.83;;;6.13;;
739;SDS011;354;42.694;23.336;2023-04-26T14:04:04;7.60;;;6.90;;
739;SDS011;354;42.694;23.336;2023-04-26T14:06:30;7.60;;;6.80;;
739;SDS011;354;42.694;23.336;2023-04-26T14:08:58;7.53;;;6.97;;
739;SDS011;354;42.694;23.336;2023-04-26T14:11:24;6.90;;;6.50;;
739;SDS011;354;42.694;23.336;2023-04-26T14:13:50;7.03;;;6.53;;
739;SDS011;354;42.694;23.336;2023-04-26T14:16:15;7.07;;;6.47;;
739;SDS011;354;42.694;23.336;2023-04-26T14:18:41;6.77;;;6.27;;
739;SDS011;354;42.694;23.336;2023-04-26T14:21:10;11.67;;;6.43;;
739;SDS011;354;42.694;23.336;2023-04-26T14:23:36;6.90;;;6.40;;
739;SDS011;354;42.694;23.336;2023-04-26T14:26:01;7.37;;;6.77;;
739;SDS011;354;42.694;23.336;2023-04-26T14:28:27;7.40;;;6.90;;
739;SDS011;354;42.694;23.336;2023-04-26T14:30:52;7.33;;;6.77;;
739;SDS011;354;42.694;23.336;2023-04-26T14:33:18;8.13;;;6.53;;
739;SDS011;354;42.694;23.336;2023-04-26T14:35:43;6.70;;;6.27;;
739;SDS011;354;42.694;23.336;2023-04-26T14:38:08;8.50;;;7.70;;
739;SDS011;354;42.694;23.336;2023-04-26T14:40:34;7.17;;;6.47;;
739;SDS011;354;42.694;23.336;2023-04-26T14:43:01;6.77;;;6.27;;
739;SDS011;354;42.694;23.336;2023-04-26T14:45:26;7.23;;;6.63;;
739;SDS011;354;42.694;23.336;2023-04-26T14:47:52;7.83;;;7.10;;
739;SDS011;354;42.694;23.336;2023-04-26T14:50:17;7.50;;;6.90;;
739;SDS011;354;42.694;23.336;2023-04-26T14:52:43;7.20;;;6.70;;
739;SDS011;354;42.694;23.336;2023-04-26T14:55:10;7.37;;;6.77;;
739;SDS011;354;42.694;23.336;2023-04-26T14:57:41;9.17;;;8.40;;
739;SDS011;354;42.694;23.336;2023-04-26T15:00:07;9.53;;;8.70;;
739;SDS011;354;42.694;23.336;2023-04-26T15:02:33;7.97;;;7.27;;
739;SDS011;354;42.694;23.336;2023-04-26T15:04:58;7.07;;;6.50;;
739;SDS011;354;42.694;23.336;2023-04-26T15:07:26;8.50;;;7.83;;
739;SDS011;354;42.694;23.336;2023-04-26T15:09:52;8.33;;;7.63;;
739;SDS011;354;42.694;23.336;2023-04-26T15:12:17;8.23;;;7.63;;
739;SDS011;354;42.694;23.336;2023-04-26T15:14:42;8.77;;;8.07;;
739;SDS011;354;42.694;23.336;2023-04-26T15:17:08;9.37;;;8.63;;
739;SDS011;354;42.694;23.336;2023-04-26T15:19:34;9.90;;;9.10;;
739;SDS011;354;42.694;23.336;2023-04-26T15:22:00;8.97;;;8.13;;
739;SDS011;354;42.694;23.336;2023-04-26T15:24:25;7.60;;;7.10;;
739;SDS011;354;42.694;23.336;2023-04-26T15:26:51;8.80;;;8.10;;
739;SDS011;354;42.694;23.336;2023-04-26T15:29:16;11.07;;;9.93;;
739;SDS011;354;42.694;23.336;2023-04-26T15:31:42;10.03;;;9.13;;
739;SDS011;354;42.694;23.336;2023-04-26T15:34:07;8.73;;;8.03;;
739;SDS011;354;42.694;23.336;2023-04-26T15:36:33;9.43;;;8.70;;
739;SDS011;354;42.694;23.336;2023-04-26T15:38:59;10.20;;;9.30;;
739;SDS011;354;42.694;23.336;2023-04-26T15:41:25;9.60;;;8.90;;
739;SDS011;354;42.694;23.336;2023-04-26T15:43:54;9.67;;;8.97;;
739;SDS011;354;42.694;23.336;2023-04-26T15:46:20;10.07;;;8.80;;